Time;durP1;ratioP1;P1;durP2;ratioP2;P2;SDS_P1;SDS_P2;PMS_P1;PMS_P2;Temp;Humidity;BMP_temperature;BMP_pressure;BME280_temperature;BME280_humidity;BME280_pressure;Samples;Min_cycle;Max_cycle;Signal;HPM_P1;HPM_P2
2022/08/19 00:00:10;;;;;;;31.95;16.75;;;20.10;73.70;;;16.39;100.00;95232.28;4971478;28;20042;-46
2022/08/19 00:02:36;;;;;;;35.78;17.63;;;20.10;73.90;;;16.37;100.00;95237.97;4948371;28;20080;-45
2022/08/19 00:05:04;;;;;;;33.58;16.92;;;20.10;73.80;;;16.37;100.00;95237.19;4955026;28;20065;-45
2022/08/19 00:07:30;;;;;;;37.60;17.65;;;20.10;73.90;;;16.34;100.00;95245.84;4954601;28;20061;-46
2022/08/19 00:09:56;;;;;;;37.13;17.55;;;20.10;73.90;;;16.32;100.00;95243.47;4972670;28;20056;-44
2022/08/19 00:12:22;;;;;;;34.22;17.02;;;20.10;73.90;;;16.33;100.00;95238.91;4971181;28;20121;-44
2022/08/19 00:14:53;;;;;;;34.03;16.45;;;20.10;74.00;;;16.35;100.00;95242.06;4972620;28;20430;-44
2022/08/19 00:17:22;;;;;;;36.53;17.40;;;20.10;74.10;;;16.34;100.00;95238.59;4971737;28;20106;-44
2022/08/19 00:19:48;;;;;;;36.33;18.60;;;20.10;74.20;;;16.31;100.00;95241.88;4972241;28;20034;-44
2022/08/19 00:22:20;;;;;;;39.45;18.48;;;20.10;74.10;;;16.31;100.00;95247.25;4972247;28;20396;-45
2022/08/19 00:24:49;;;;;;;47.78;20.70;;;20.10;74.20;;;16.31;100.00;95249.16;4955204;28;20026;-45
2022/08/19 00:27:16;;;;;;;40.00;19.67;;;20.10;74.30;;;16.32;100.00;95256.91;4971660;28;20026;-43
2022/08/19 00:29:41;;;;;;;40.35;18.92;;;20.10;74.20;;;16.34;100.00;95262.78;4972249;28;20389;-45
2022/08/19 00:32:13;;;;;;;37.95;18.10;;;20.10;74.30;;;16.33;100.00;95265.78;4954617;28;20030;-44
2022/08/19 00:34:41;;;;;;;39.95;19.98;;;20.10;74.40;;;16.33;100.00;95266.56;4970927;28;20041;-47
2022/08/19 00:37:08;;;;;;;47.72;20.15;;;20.10;74.40;;;16.36;100.00;95267.84;4970654;28;20022;-45
2022/08/19 00:39:37;;;;;;;46.97;20.25;;;20.10;74.30;;;16.37;100.00;95256.78;4970715;28;20018;-47
2022/08/19 00:42:03;;;;;;;43.00;19.45;;;20.10;74.40;;;16.39;100.00;95259.97;4970747;28;20022;-52
2022/08/19 00:44:30;;;;;;;42.08;19.17;;;20.10;75.20;;;16.40;100.00;95252.69;4970614;28;20507;-44
2022/08/19 00:46:59;;;;;;;44.42;20.10;;;20.10;74.40;;;16.42;100.00;95258.53;4953990;28;20038;-44
2022/08/19 00:49:41;;;;;;;41.97;18.75;;;20.20;74.60;;;16.40;100.00;95250.78;4970553;28;20018;-45
2022/08/19 00:52:17;;;;;;;45.92;19.98;;;20.20;74.70;;;16.39;100.00;95246.53;4972166;28;20112;-47
2022/08/19 00:54:48;;;;;;;45.60;20.38;;;20.20;74.60;;;16.39;100.00;95241.16;4954751;28;20044;-44
2022/08/19 00:57:23;;;;;;;44.35;19.73;;;20.20;74.50;;;16.41;100.00;95243.50;4954264;28;20042;-45
2022/08/19 00:59:57;;;;;;;51.75;20.02;;;20.20;74.60;;;16.43;100.00;95241.31;4954862;28;20521;-47
2022/08/19 01:02:29;;;;;;;52.58;21.20;;;20.20;74.60;;;16.43;100.00;95238.63;4957171;28;20497;-45
2022/08/19 01:04:56;;;;;;;57.08;21.15;;;20.20;75.30;;;16.43;100.00;95234.03;4954651;28;20129;-44
2022/08/19 01:07:25;;;;;;;56.97;20.52;;;20.20;74.50;;;16.47;100.00;95238.78;4953588;28;20037;-43
2022/08/19 01:09:52;;;;;;;64.50;21.27;;;20.20;74.50;;;16.47;100.00;95236.13;4954123;28;20033;-46
2022/08/19 01:12:24;;;;;;;73.53;20.95;;;20.20;74.50;;;16.46;100.00;95229.94;4970359;28;20041;-48
2022/08/19 01:14:52;;;;;;;44.58;18.73;;;20.30;74.50;;;16.48;100.00;95240.38;4938524;28;20026;-44
2022/08/19 01:17:21;;;;;;;43.10;19.27;;;20.30;74.40;;;16.48;100.00;95229.63;4953727;28;20030;-45
2022/08/19 01:19:48;;;;;;;49.78;18.58;;;20.30;74.40;;;16.45;100.00;95222.19;4938077;28;20477;-44
2022/08/19 01:22:23;;;;;;;45.75;18.23;;;20.30;74.30;;;16.45;100.00;95222.19;4937955;28;20488;-44
2022/08/19 01:24:52;;;;;;;43.55;17.85;;;20.30;74.50;;;16.43;100.00;95225.97;4971335;28;20073;-46
2022/08/19 01:27:21;;;;;;;43.22;18.45;;;20.30;74.30;;;16.42;100.00;95224.41;4970950;28;20493;-46
2022/08/19 01:29:47;;;;;;;46.30;18.38;;;20.30;74.50;;;16.42;100.00;95224.41;4971538;28;20450;-46
2022/08/19 01:32:17;;;;;;;47.88;19.35;;;20.20;74.40;;;16.42;100.00;95232.47;4971445;28;20389;-46
2022/08/19 01:34:46;;;;;;;48.28;19.25;;;20.30;75.40;;;16.42;100.00;95235.16;4953988;28;20044;-48
2022/08/19 01:37:14;;;;;;;53.30;19.35;;;20.20;74.50;;;16.42;100.00;95231.66;4954190;28;20022;-44
2022/08/19 01:39:42;;;;;;;54.92;20.05;;;20.20;74.60;;;16.42;100.00;95232.47;4954204;28;20193;-50
2022/08/19 01:42:11;;;;;;;54.72;21.65;;;20.20;74.90;;;16.42;100.00;95227.09;4970628;28;20084;-44
2022/08/19 01:44:42;;;;;;;54.55;20.83;;;20.20;74.70;;;16.41;100.00;95235.44;4971516;28;20078;-46
2022/08/19 01:47:12;;;;;;;61.25;22.92;;;20.20;74.90;;;16.42;100.00;95235.16;4970451;28;20444;-48
2022/08/19 01:49:40;;;;;;;55.55;21.95;;;20.20;74.90;;;16.43;100.00;95227.88;4953903;28;20022;-44
2022/08/19 01:52:06;;;;;;;70.78;22.42;;;20.20;75.00;;;16.42;100.00;95229.78;4971240;28;20092;-46
2022/08/19 01:54:33;;;;;;;59.55;21.02;;;20.20;74.90;;;16.43;100.00;95222.50;4953888;28;20033;-46
2022/08/19 01:57:12;;;;;;;59.60;21.60;;;20.20;74.90;;;16.46;100.00;95218.41;4937409;28;20026;-45
2022/08/19 01:59:42;;;;;;;59.65;22.08;;;20.30;75.10;;;16.47;100.00;95210.00;4937807;28;20509;-47
2022/08/19 02:02:08;;;;;;;79.10;22.27;;;20.30;75.00;;;16.49;100.00;95213.19;4937701;28;20498;-50
2022/08/19 02:04:37;;;;;;;69.25;23.88;;;20.30;74.90;;;16.49;100.00;95215.88;4971417;28;20053;-47
2022/08/19 02:07:03;;;;;;;73.00;24.05;;;20.30;74.90;;;16.50;100.00;95211.28;4970546;28;20478;-45
2022/08/19 02:09:32;;;;;;;66.13;23.15;;;20.30;74.90;;;16.51;100.00;95218.25;4954015;28;20061;-44
2022/08/19 02:11:58;;;;;;;64.80;22.77;;;20.30;74.90;;;16.52;100.00;95211.78;4970899;28;20055;-44
2022/08/19 02:14:24;;;;;;;68.47;23.92;;;20.30;74.90;;;16.51;100.00;95219.03;4954130;28;20034;-44
2022/08/19 02:16:58;;;;;;;69.22;23.80;;;20.30;74.90;;;16.53;100.00;95216.84;4957037;28;20029;-45
2022/08/19 02:19:31;;;;;;;64.55;23.25;;;20.30;75.10;;;16.54;100.00;95212.25;4974871;28;20026;-48
2022/08/19 02:22:04;;;;;;;62.67;22.80;;;20.30;75.00;;;16.53;100.00;95210.69;4974899;28;20117;-45
2022/08/19 02:24:33;;;;;;;73.95;24.17;;;20.30;75.10;;;16.52;100.00;95203.72;4973411;28;20041;-45
2022/08/19 02:27:11;;;;;;;63.28;23.67;;;20.30;75.00;;;16.50;100.00;95206.72;4973292;28;20192;-45
2022/08/19 02:29:36;;;;;;;72.05;23.60;;;20.30;75.20;;;16.47;100.00;95215.41;4958569;28;20049;-47
2022/08/19 02:32:05;;;;;;;71.13;24.52;;;20.30;75.00;;;16.46;100.00;95216.50;4974602;28;20022;-44
2022/08/19 02:34:35;;;;;;;76.45;25.27;;;20.30;75.10;;;16.46;100.00;95227.25;4973243;28;20014;-49
2022/08/19 02:37:04;;;;;;;77.47;25.77;;;20.30;75.10;;;16.45;100.00;95222.97;4973907;28;20054;-46
2022/08/19 02:39:30;;;;;;;74.00;24.23;;;20.30;75.10;;;16.47;100.00;95233.44;4957074;28;20022;-44
2022/08/19 02:41:56;;;;;;;74.47;25.75;;;20.30;75.00;;;16.47;100.00;95228.03;4956906;28;20026;-50
2022/08/19 02:44:28;;;;;;;73.05;25.67;;;20.30;75.10;;;16.47;100.00;95225.34;4956660;28;20413;-43
2022/08/19 02:47:00;;;;;;;69.13;25.83;;;20.30;75.10;;;16.48;100.00;95216.19;4973900;28;20088;-45
2022/08/19 02:49:26;;;;;;;75.30;26.23;;;20.30;75.20;;;16.49;100.00;95221.25;4956460;28;20030;-44
2022/08/19 02:51:52;;;;;;;71.97;26.63;;;20.30;75.00;;;16.51;100.00;95224.41;4956659;28;20065;-44
2022/08/19 02:54:30;;;;;;;84.05;27.58;;;20.30;75.10;;;16.50;100.00;95214.78;4973937;28;20030;-44
2022/08/19 02:56:58;;;;;;;74.00;25.92;;;20.40;75.30;;;16.51;100.00;95216.34;4956329;28;20034;-44
2022/08/19 02:59:25;;;;;;;73.85;25.45;;;20.40;75.10;;;16.54;100.00;95214.94;4956177;28;20049;-43
2022/08/19 03:01:51;;;;;;;79.70;26.08;;;20.40;75.00;;;16.55;100.00;95211.97;4963109;28;20026;-47
2022/08/19 03:04:20;;;;;;;87.22;28.25;;;20.40;75.10;;;16.53;100.00;95216.84;4971638;28;20027;-43
2022/08/19 03:06:48;;;;;;;78.43;26.85;;;20.40;75.00;;;16.54;100.00;95215.72;4956620;28;20077;-43
2022/08/19 03:09:17;;;;;;;74.90;26.80;;;20.40;75.00;;;16.56;100.00;95220.81;4973617;28;20056;-42
2022/08/19 03:11:44;;;;;;;74.72;26.38;;;20.40;75.00;;;16.56;100.00;95220.81;4956591;28;20029;-45
2022/08/19 03:14:12;;;;;;;82.40;28.88;;;20.40;74.90;;;16.57;100.00;95220.47;4956384;28;20026;-49
2022/08/19 03:16:51;;;;;;;79.00;28.45;;;20.40;75.00;;;16.58;100.00;95229.38;4955894;28;20049;-48
2022/08/19 03:19:21;;;;;;;86.53;28.00;;;20.50;75.20;;;16.58;100.00;95230.16;4956752;28;20377;-45
2022/08/19 03:21:48;;;;;;;84.05;28.80;;;20.50;75.10;;;16.57;100.00;95227.75;4956355;28;20026;-44
2022/08/19 03:24:31;;;;;;;87.70;29.73;;;20.50;75.00;;;16.54;100.00;95218.41;4956395;28;20080;-45
2022/08/19 03:26:58;;;;;;;83.63;28.98;;;20.50;75.00;;;16.56;100.00;95220.81;4972451;28;20053;-45
2022/08/19 03:29:28;;;;;;;80.72;29.35;;;20.40;74.80;;;16.55;100.00;95220.03;4972219;28;20068;-44
2022/08/19 03:31:54;;;;;;;86.05;29.42;;;20.50;75.00;;;16.57;100.00;95227.75;4965183;28;20088;-43
2022/08/19 03:34:37;;;;;;;83.20;28.17;;;20.50;74.90;;;16.58;100.00;95230.16;4973646;28;20033;-45
2022/08/19 03:37:14;;;;;;;94.30;29.58;;;20.50;75.10;;;16.57;100.00;95228.56;4956048;28;20030;-44
2022/08/19 03:39:41;;;;;;;86.55;30.40;;;20.50;75.10;;;16.58;100.00;95229.38;4956212;28;20565;-49
2022/08/19 03:42:12;;;;;;;86.43;31.50;;;20.50;74.90;;;16.56;100.00;95232.34;4955958;28;20060;-45
2022/08/19 03:44:38;;;;;;;89.25;30.55;;;20.50;75.00;;;16.56;100.00;95226.19;4956084;28;20023;-45
2022/08/19 03:47:05;;;;;;;88.18;29.58;;;20.50;75.00;;;16.56;100.00;95231.56;4955317;28;20037;-43
2022/08/19 03:49:35;;;;;;;85.75;29.50;;;20.50;75.00;;;16.57;100.00;95219.69;4971799;28;20084;-45
2022/08/19 03:52:04;;;;;;;94.28;30.92;;;20.50;75.10;;;16.57;100.00;95212.41;4971366;28;20060;-43
2022/08/19 03:54:32;;;;;;;97.60;31.52;;;20.50;75.00;;;16.56;100.00;95205.47;4956137;28;20030;-47
2022/08/19 03:56:59;;;;;;;99.28;31.70;;;20.50;75.00;;;16.58;100.00;95214.03;4954988;28;20029;-44
2022/08/19 03:59:33;;;;;;;98.70;33.10;;;20.50;74.90;;;16.57;100.00;95208.94;4972624;28;20155;-44
2022/08/19 04:02:07;;;;;;;87.43;31.58;;;20.50;75.00;;;16.54;100.00;95214.94;4945216;28;20041;-43
2022/08/19 04:04:33;;;;;;;92.90;31.83;;;20.50;75.00;;;16.55;100.00;95220.03;4916045;28;20026;-49
2022/08/19 04:07:02;;;;;;;92.57;32.20;;;20.50;74.90;;;16.58;100.00;95219.41;4972399;28;20532;-46
2022/08/19 04:09:33;;;;;;;99.07;33.13;;;20.50;75.00;;;16.58;100.00;95218.63;4939574;28;20054;-46
2022/08/19 04:12:08;;;;;;;82.25;31.10;;;20.50;75.00;;;16.55;100.00;95213.84;4955374;28;20415;-44
2022/08/19 04:14:35;;;;;;;91.03;32.95;;;20.50;75.10;;;16.56;100.00;95210.06;4973304;28;20022;-46
2022/08/19 04:17:07;;;;;;;101.28;33.75;;;20.50;75.00;;;16.53;100.00;95208.78;4972104;28;20504;-45
2022/08/19 04:19:40;;;;;;;84.75;32.30;;;20.50;75.20;;;16.52;100.00;95209.88;4972606;28;20052;-45
2022/08/19 04:22:10;;;;;;;87.18;31.60;;;20.50;75.10;;;16.52;100.00;95211.78;4972730;28;20034;-46
2022/08/19 04:24:36;;;;;;;92.50;33.90;;;20.50;75.10;;;16.52;100.00;95215.25;4972780;28;20385;-44
2022/08/19 04:27:06;;;;;;;88.10;33.95;;;20.50;75.10;;;16.50;100.00;95219.38;4938827;28;20034;-45
2022/08/19 04:29:39;;;;;;;90.68;33.90;;;20.50;75.20;;;16.47;100.00;95223.47;4938854;28;20046;-43
2022/08/19 04:32:07;;;;;;;94.38;34.42;;;20.50;75.20;;;16.47;100.00;95228.03;4972404;28;20501;-43
2022/08/19 04:34:33;;;;;;;91.28;31.77;;;20.40;75.00;;;16.47;100.00;95236.91;4972308;28;20029;-46
2022/08/19 04:36:59;;;;;;;93.53;34.95;;;20.40;75.00;;;16.46;100.00;95235.31;4971444;28;20034;-43
2022/08/19 04:45:06;;;;;;;84.82;33.10;;;20.40;75.20;;;16.48;100.00;95233.09;4972126;28;20478;-44
2022/08/19 04:47:45;;;;;;;86.53;32.97;;;20.50;75.40;;;16.48;100.00;95232.31;4938466;28;20088;-46
2022/08/19 04:50:11;;;;;;;89.10;32.25;;;20.50;75.50;;;16.48;100.00;95237.69;4954628;28;20026;-45
2022/08/19 04:52:42;;;;;;;80.72;32.92;;;20.40;75.20;;;16.48;100.00;95233.09;4970739;28;20026;-44
2022/08/19 04:55:11;;;;;;;80.53;33.05;;;20.40;75.20;;;16.49;100.00;95234.69;4955137;28;20048;-44
2022/08/19 04:57:40;;;;;;;81.20;32.75;;;20.50;75.40;;;16.48;100.00;95241.16;4971768;28;20060;-43
2022/08/19 05:00:11;;;;;;;79.10;33.72;;;20.40;75.40;;;16.46;100.00;95250.66;4972244;28;20042;-46
2022/08/19 05:02:38;;;;;;;74.80;33.53;;;20.50;75.40;;;16.43;100.00;95249.38;4947341;28;20036;-45
2022/08/19 05:05:06;;;;;;;70.15;31.98;;;20.50;75.30;;;16.44;100.00;95256.34;4938415;28;20018;-47
2022/08/19 05:07:34;;;;;;;72.68;32.13;;;20.50;75.40;;;16.48;100.00;95264.56;4954083;28;20053;-46
2022/08/19 05:10:01;;;;;;;71.38;31.55;;;20.50;76.20;;;16.45;100.00;95263.28;4971482;28;20022;-50
2022/08/19 05:12:28;;;;;;;75.70;31.73;;;20.50;75.30;;;16.47;100.00;95261.09;4970310;28;20117;-46
2022/08/19 05:14:56;;;;;;;70.53;32.40;;;20.50;75.30;;;16.47;100.00;95257.63;4954437;28;20105;-46
2022/08/19 05:17:28;;;;;;;66.65;31.25;;;20.50;76.00;;;16.47;100.00;95260.31;4937827;28;20034;-47
2022/08/19 05:22:44;;;;;;;71.05;30.63;;;20.50;75.20;;;16.43;100.00;95266.31;4956884;28;20037;-46
2022/08/19 05:25:18;;;;;;;64.50;30.77;;;20.50;75.20;;;16.47;100.00;95268.38;4954467;28;20397;-46
2022/08/19 05:27:44;;;;;;;70.43;31.15;;;20.50;75.30;;;16.48;100.00;95276.13;4954266;28;20503;-45
2022/08/19 05:30:13;;;;;;;71.65;32.08;;;20.50;75.30;;;16.49;100.00;95283.09;4954070;28;20073;-47
2022/08/19 05:32:40;;;;;;;72.50;33.25;;;20.50;75.40;;;16.48;100.00;95286.06;4954084;28;20493;-46
2022/08/19 05:35:11;;;;;;;67.82;32.08;;;20.50;75.40;;;16.50;100.00;95286.56;4938213;28;20137;-50
2022/08/19 05:37:39;;;;;;;70.55;31.67;;;20.50;75.40;;;16.54;100.00;95292.91;4953812;28;20022;-46
2022/08/19 05:40:07;;;;;;;79.20;32.80;;;20.50;75.40;;;16.52;100.00;95287.06;4971379;28;20019;-45
2022/08/19 05:42:36;;;;;;;71.45;32.35;;;20.50;75.40;;;16.54;100.00;95290.22;4971055;28;20036;-45
2022/08/19 05:45:02;;;;;;;65.53;31.30;;;20.50;75.50;;;16.53;100.00;95296.72;4953771;28;20018;-46
2022/08/19 05:47:35;;;;;;;57.63;28.65;;;20.50;75.30;;;16.51;100.00;95291.63;4953334;28;20034;-48
2022/08/19 05:50:01;;;;;;;56.75;28.45;;;20.60;75.60;;;16.49;100.00;95287.69;4972572;28;20137;-44
2022/08/19 05:52:28;;;;;;;52.47;26.77;;;20.50;75.30;;;16.48;100.00;95294.13;4973703;28;20030;-47
2022/08/19 05:54:55;;;;;;;49.47;26.00;;;20.50;75.20;;;16.43;100.00;95290.50;4973677;28;20140;-47
2022/08/19 05:57:21;;;;;;;42.22;23.60;;;20.50;75.20;;;16.44;100.00;95288.59;4945959;28;20030;-46
2022/08/19 05:59:51;;;;;;;44.60;24.58;;;20.50;75.20;;;16.42;100.00;95282.72;4954407;28;20043;-46
2022/08/19 06:02:17;;;;;;;39.38;23.73;;;20.50;75.20;;;16.41;100.00;95278.44;4941678;28;20463;-45
2022/08/19 06:04:45;;;;;;;41.15;24.45;;;20.50;75.10;;;16.39;100.00;95284.16;4954526;28;20110;-49
2022/08/19 06:07:11;;;;;;;42.17;24.23;;;20.50;75.20;;;16.40;100.00;95279.56;4937842;28;20048;-45
2022/08/19 06:09:37;;;;;;;43.40;25.10;;;20.50;75.10;;;16.41;100.00;95281.16;4938373;28;20022;-46
2022/08/19 06:12:04;;;;;;;40.17;23.63;;;20.50;75.00;;;16.41;100.00;95286.53;4947070;28;20394;-48
2022/08/19 06:14:34;;;;;;;44.70;24.08;;;20.50;75.00;;;16.45;100.00;95284.00;4944433;28;20437;-46
2022/08/19 06:17:02;;;;;;;40.97;23.02;;;20.50;75.10;;;16.44;100.00;95288.59;4953844;28;20026;-45
2022/08/19 06:19:31;;;;;;;40.35;23.27;;;20.50;75.10;;;16.44;100.00;95288.59;4954071;28;20389;-46
2022/08/19 06:22:00;;;;;;;41.30;23.70;;;20.50;75.10;;;16.42;100.00;95285.41;4954965;28;20109;-49
2022/08/19 06:24:30;;;;;;;38.88;23.35;;;20.60;75.20;;;16.45;100.00;95286.69;4955235;28;20466;-47
2022/08/19 06:26:59;;;;;;;36.70;22.17;;;20.60;75.10;;;16.41;100.00;95290.00;4937545;28;20030;-47
2022/08/19 06:29:29;;;;;;;36.53;21.90;;;20.60;75.00;;;16.47;100.00;95292.56;4955106;28;20027;-48
2022/08/19 06:32:02;;;;;;;36.65;22.77;;;20.60;75.00;;;16.48;100.00;95291.44;4890258;28;26173;-46
2022/08/19 06:34:37;;;;;;;35.45;21.98;;;20.60;75.00;;;16.52;100.00;95287.84;4938301;28;20034;-47
2022/08/19 06:37:05;;;;;;;33.90;21.85;;;20.60;75.00;;;16.47;100.00;95289.88;4954490;28;20033;-49
2022/08/19 06:39:40;;;;;;;33.28;20.75;;;20.70;74.90;;;16.51;100.00;95285.47;4938033;28;20019;-46
2022/08/19 06:42:11;;;;;;;35.65;21.92;;;20.70;74.90;;;16.51;100.00;95296.22;4953992;28;20386;-46
2022/08/19 06:44:41;;;;;;;37.10;22.00;;;20.70;74.70;;;16.53;100.00;95291.34;4954952;28;20109;-47
2022/08/19 06:47:20;;;;;;;35.10;21.77;;;20.70;74.70;;;16.55;100.00;95299.88;4954411;28;20389;-48
2022/08/19 06:49:49;;;;;;;40.30;21.70;;;20.70;74.80;;;16.58;100.00;95297.38;4937971;28;20027;-45
2022/08/19 06:52:15;;;;;;;36.42;21.88;;;20.70;74.70;;;16.57;100.00;95297.66;4937592;28;20113;-48
2022/08/19 06:54:42;;;;;;;36.53;21.60;;;20.80;74.70;;;16.56;100.00;95304.94;4952589;28;20105;-47
2022/08/19 06:57:13;;;;;;;37.33;22.52;;;20.70;74.60;;;16.61;100.00;95304.81;4937149;28;20057;-47
2022/08/19 06:59:41;;;;;;;36.65;21.50;;;20.70;74.70;;;16.56;100.00;95304.16;4968256;28;20050;-46
2022/08/19 07:02:10;;;;;;;34.67;21.42;;;20.70;74.70;;;16.55;100.00;95299.88;4955781;28;20049;-46
2022/08/19 07:04:38;;;;;;;36.97;22.40;;;20.70;74.70;;;16.54;100.00;95311.72;4954731;28;20092;-48
2022/08/19 07:07:14;;;;;;;33.58;20.92;;;20.70;74.60;;;16.53;100.00;95308.25;4937007;28;20034;-46
2022/08/19 07:09:44;;;;;;;32.92;21.02;;;20.70;74.70;;;16.56;100.00;95310.31;4953358;28;20077;-47
2022/08/19 07:12:15;;;;;;;37.33;22.08;;;20.70;74.70;;;16.57;100.00;95301.16;4883902;28;21282;-46
2022/08/19 07:14:43;;;;;;;38.88;21.38;;;20.70;74.70;;;16.55;100.00;95314.13;4937500;28;20109;-46
2022/08/19 07:17:12;;;;;;;34.92;21.10;;;20.70;74.70;;;16.59;100.00;95312.41;4937001;28;20041;-49
2022/08/19 07:19:42;;;;;;;44.22;22.38;;;20.70;74.90;;;16.61;100.00;95312.09;4934107;29;20023;-48
2022/08/19 07:22:13;;;;;;;36.22;22.67;;;20.70;74.90;;;16.62;100.00;95314.47;4968213;28;20061;-45
2022/08/19 07:24:41;;;;;;;38.63;22.50;;;20.60;74.90;;;16.62;100.00;95319.84;4974158;28;20034;-48
2022/08/19 07:27:08;;;;;;;39.30;21.15;;;20.60;75.00;;;16.58;100.00;95326.94;4955451;28;20105;-47
2022/08/19 07:29:37;;;;;;;37.38;22.70;;;20.60;75.70;;;16.64;100.00;95320.34;4956218;28;20088;-48
2022/08/19 07:32:05;;;;;;;34.30;21.27;;;20.60;75.10;;;16.65;100.00;95324.59;4955941;28;20033;-50
2022/08/19 07:34:36;;;;;;;38.53;23.08;;;20.60;75.10;;;16.68;100.00;95328.56;4973180;28;20029;-49
2022/08/19 07:37:06;;;;;;;38.63;22.10;;;20.70;75.10;;;16.72;100.00;95321.47;4972744;28;20034;-45
2022/08/19 07:39:37;;;;;;;35.33;22.52;;;20.70;75.20;;;16.74;100.00;95321.97;4955858;28;20022;-45
2022/08/19 07:42:09;;;;;;;38.45;22.90;;;20.70;75.30;;;16.75;100.00;95323.56;4973122;28;20030;-48
2022/08/19 07:44:37;;;;;;;40.03;23.63;;;20.70;75.20;;;16.80;100.00;95331.50;4956072;28;20025;-46
2022/08/19 07:47:04;;;;;;;38.15;22.67;;;20.70;75.20;;;16.79;100.00;95329.13;4955207;28;20608;-49
2022/08/19 07:49:31;;;;;;;37.70;22.92;;;20.80;75.20;;;16.83;100.00;95333.59;4955395;28;20041;-47
2022/08/19 07:52:08;;;;;;;39.95;23.63;;;20.80;75.20;;;16.79;100.00;95337.97;4972932;28;20022;-50
2022/08/19 07:54:46;;;;;;;42.53;24.02;;;20.80;75.30;;;16.85;100.00;95344.03;4972462;28;20018;-46
2022/08/19 07:57:12;;;;;;;42.60;23.67;;;20.80;75.30;;;16.87;100.00;95353.38;4972593;28;20033;-47
2022/08/19 07:59:37;;;;;;;46.30;23.52;;;20.80;75.10;;;16.87;100.00;95349.91;4972725;28;20042;-49
2022/08/19 08:02:11;;;;;;;41.13;23.75;;;20.80;75.20;;;16.88;100.00;95351.47;4944838;28;20109;-46
2022/08/19 08:10:22;;;;;;;42.17;23.40;;;20.80;75.30;;;16.93;100.00;95367.50;4939029;28;20058;-48
2022/08/19 08:12:48;;;;;;;40.33;24.05;;;20.80;75.20;;;16.93;100.00;95362.09;4932895;29;20127;-49
2022/08/19 08:15:16;;;;;;;42.75;25.23;;;20.80;75.20;;;16.94;100.00;95368.28;4947667;28;20050;-48
2022/08/19 08:17:43;;;;;;;40.03;24.13;;;20.80;75.30;;;16.95;100.00;95367.16;4935496;28;20038;-47
2022/08/19 08:20:12;;;;;;;41.75;23.52;;;20.80;75.30;;;16.92;100.00;95376.66;4934136;28;20019;-47
2022/08/19 08:25:31;;;;;;;49.13;25.20;;;20.80;75.40;;;16.85;100.00;95381.69;4953181;28;20037;-47
2022/08/19 08:28:00;;;;;;;47.30;25.55;;;20.80;75.30;;;16.85;100.00;95384.38;4952564;28;20077;-52
2022/08/19 08:30:32;;;;;;;44.05;25.30;;;20.80;75.30;;;16.82;100.00;95393.06;4936259;28;20018;-49
2022/08/19 08:33:01;;;;;;;46.85;24.42;;;20.80;75.50;;;16.85;100.00;95401.28;4936048;28;20026;-46
2022/08/19 08:35:29;;;;;;;43.63;24.83;;;20.80;75.50;;;16.78;100.00;95400.94;4935474;28;20023;-49
2022/08/19 08:38:05;;;;;;;44.85;25.15;;;20.70;76.20;;;16.70;100.00;95396.28;4952226;28;20513;-47
2022/08/19 08:41:06;;;;;;;49.90;26.45;;;20.70;75.60;;;16.74;100.00;95404.53;4935607;28;20088;-48
2022/08/19 08:43:45;;;;;;;46.80;24.83;;;20.60;75.70;;;16.75;100.00;95406.13;4931933;29;20019;-48
2022/08/19 08:46:48;;;;;;;48.05;26.20;;;20.60;75.70;;;16.70;100.00;95411.63;4946003;28;20022;-48
2022/08/19 08:49:51;;;;;;;52.00;26.83;;;20.60;75.70;;;16.69;100.00;95413.53;4947501;28;20031;-47
2022/08/19 08:52:42;;;;;;;50.95;27.48;;;20.60;75.70;;;16.66;100.00;95414.91;4947664;28;20046;-47
2022/08/19 08:55:20;;;;;;;52.50;26.52;;;20.60;75.70;;;16.63;100.00;95423.59;4936583;28;20165;-47
2022/08/19 08:58:13;;;;;;;61.22;27.85;;;20.50;75.60;;;16.67;100.00;95426.47;4935298;28;20100;-47
2022/08/19 09:00:46;;;;;;;;;;;20.50;75.80;;;16.68;100.00;95425.38;4914525;29;20546;-47
2022/08/19 09:03:28;;;;;;;60.40;28.25;;;20.50;75.30;;;16.63;100.00;95436.25;4913154;29;19907;-46
2022/08/19 09:06:43;;;;;;;64.60;28.75;;;20.60;75.60;;;16.64;100.00;95435.19;4929555;29;20073;-47
2022/08/19 09:09:46;;;;;;;62.72;28.98;;;20.50;75.60;;;16.65;100.00;95434.06;4931990;29;20035;-47
2022/08/19 09:13:14;;;;;;;64.07;29.70;;;20.50;75.70;;;16.60;100.00;95436.88;4916500;29;20038;-49
2022/08/19 09:16:13;;;;;;;75.97;30.98;;;20.50;75.70;;;16.56;100.00;95438.59;4912463;29;20027;-46
2022/08/19 09:18:48;;;;;;;72.55;32.40;;;20.50;75.90;;;16.56;100.00;95441.28;4925718;29;20050;-47
2022/08/19 09:21:18;;;;;;;77.05;32.85;;;20.50;76.00;;;16.52;100.00;95438.41;4915804;29;20035;-47
2022/08/19 09:23:55;;;;;;;76.10;32.78;;;20.50;76.10;;;16.57;100.00;95440.97;4912449;29;20054;-46
2022/08/19 09:26:26;;;;;;;79.93;33.63;;;20.50;76.10;;;16.59;100.00;95446.03;4925645;29;20506;-48
2022/08/19 09:28:54;;;;;;;77.68;34.90;;;20.50;76.10;;;16.57;100.00;95438.28;4932982;29;20419;-46
2022/08/19 09:31:28;;;;;;;81.03;34.05;;;20.50;76.00;;;16.60;100.00;95439.56;4897114;29;20039;-50
2022/08/19 09:34:00;;;;;;;80.72;34.03;;;20.60;76.20;;;16.54;100.00;95443.47;4932677;29;20115;-46
2022/08/19 09:36:32;;;;;;;89.35;35.10;;;20.60;76.20;;;16.60;100.00;95444.94;4932475;29;20130;-46
2022/08/19 09:38:59;;;;;;;86.00;34.80;;;20.60;76.20;;;16.59;100.00;95446.84;4931865;29;20061;-47
2022/08/19 09:41:27;;;;;;;93.43;37.47;;;20.60;76.10;;;16.64;100.00;95445.94;4915568;29;20074;-46
2022/08/19 09:43:57;;;;;;;90.72;37.47;;;20.60;76.10;;;16.69;100.00;95450.38;4932648;29;20037;-46
2022/08/19 09:46:27;;;;;;;92.22;37.45;;;20.60;76.20;;;16.74;100.00;95458.34;4911977;29;20111;-46
2022/08/19 09:48:54;;;;;;;87.20;36.63;;;20.70;76.30;;;16.75;100.00;95463.44;4900100;29;20037;-46
2022/08/19 09:51:28;;;;;;;89.43;36.67;;;20.70;76.20;;;16.66;100.00;95465.22;4912631;29;20114;-48
2022/08/19 09:54:01;;;;;;;96.65;37.95;;;20.70;76.30;;;16.70;100.00;95471.56;4905034;29;20038;-49
2022/08/19 09:56:28;;;;;;;99.28;38.40;;;20.70;76.30;;;16.71;100.00;95475.88;4930230;29;20023;-47
2022/08/19 09:58:54;;;;;;;102.65;39.83;;;20.70;76.20;;;16.70;100.00;95476.16;4896040;29;22359;-49
2022/08/19 10:01:30;;;;;;;99.75;39.78;;;20.60;76.10;;;16.71;100.00;95469.72;4953882;28;20029;-49
2022/08/19 10:04:01;;;;;;;99.88;38.38;;;20.60;76.30;;;16.63;100.00;95477.38;4963991;28;20026;-47
2022/08/19 10:06:32;;;;;;;100.10;39.20;;;20.60;76.30;;;16.64;100.00;95475.50;4950185;29;20034;-46
2022/08/19 10:08:59;;;;;;;99.25;38.13;;;20.60;76.30;;;16.63;100.00;95479.28;4951747;28;20034;-46
2022/08/19 10:11:27;;;;;;;106.40;40.15;;;20.50;76.20;;;16.66;100.00;95478.66;4990381;28;20026;-46
2022/08/19 10:13:59;;;;;;;105.53;39.72;;;20.50;76.40;;;16.68;100.00;95475.69;4972933;28;20022;-47
2022/08/19 10:16:28;;;;;;;110.47;41.53;;;20.60;76.50;;;16.68;100.00;95481.06;4973661;28;20018;-47
2022/08/19 10:18:54;;;;;;;107.32;42.05;;;20.50;76.50;;;16.62;100.00;95481.19;4972707;28;20495;-48
2022/08/19 10:21:27;;;;;;;114.63;43.20;;;20.50;76.50;;;16.64;100.00;95487.06;4972885;28;20060;-47
2022/08/19 10:23:59;;;;;;;116.07;42.85;;;20.60;76.70;;;16.66;100.00;95484.06;4972982;28;20048;-46
2022/08/19 10:26:36;;;;;;;120.43;43.80;;;20.60;76.70;;;16.63;100.00;95474.69;4972724;28;20030;-48
2022/08/19 10:29:05;;;;;;;110.88;43.60;;;20.50;76.70;;;16.64;100.00;95484.38;4973205;28;20072;-46
2022/08/19 10:31:34;;;;;;;125.72;44.55;;;20.60;76.60;;;16.63;100.00;95479.28;4990649;28;20030;-47